sensor_id;sensor_type;location;lat;lon;timestamp;pressure;altitude;pressure_sealevel;temperature;humidity
61710;BME280;47633;51.494;5.386;2023-07-31T00:00:48;101012.72;;;23.03;55.35
61710;BME280;47633;51.494;5.386;2023-07-31T00:03:13;101011.06;;;23.02;55.22
61710;BME280;47633;51.494;5.386;2023-07-31T00:05:39;101018.03;;;23.03;55.42
61710;BME280;47633;51.494;5.386;2023-07-31T00:08:04;101011.06;;;23.02;55.05
61710;BME280;47633;51.494;5.386;2023-07-31T00:10:29;101007.72;;;23.00;55.33
61710;BME280;47633;51.494;5.386;2023-07-31T00:12:55;101016.53;;;23.00;55.20
61710;BME280;47633;51.494;5.386;2023-07-31T00:15:20;101014.88;;;22.99;55.14
61710;BME280;47633;51.494;5.386;2023-07-31T00:17:45;101006.88;;;22.99;55.08
61710;BME280;47633;51.494;5.386;2023-07-31T00:20:11;101012.06;;;23.01;55.26
61710;BME280;47633;51.494;5.386;2023-07-31T00:22:36;101015.69;;;23.00;54.99
61710;BME280;47633;51.494;5.386;2023-07-31T00:25:01;101005.22;;;22.98;55.45
61710;BME280;47633;51.494;5.386;2023-07-31T00:27:27;101004.38;;;22.98;55.36
61710;BME280;47633;51.494;5.386;2023-07-31T00:29:52;101009.53;;;22.99;55.36
61710;BME280;47633;51.494;5.386;2023-07-31T00:32:17;101008.88;;;22.97;55.05
61710;BME280;47633;51.494;5.386;2023-07-31T00:34:43;100997.38;;;22.97;55.20
61710;BME280;47633;51.494;5.386;2023-07-31T00:37:08;101003.72;;;22.96;55.29
61710;BME280;47633;51.494;5.386;2023-07-31T00:39:34;101005.34;;;22.97;54.93
61710;BME280;47633;51.494;5.386;2023-07-31T00:42:00;101005.34;;;22.97;55.19
61710;BME280;47633;51.494;5.386;2023-07-31T00:44:25;101002.03;;;22.95;55.21
61710;BME280;47633;51.494;5.386;2023-07-31T00:46:50;101003.72;;;22.96;54.99
61710;BME280;47633;51.494;5.386;2023-07-31T00:49:16;101005.50;;;22.95;55.25
61710;BME280;47633;51.494;5.386;2023-07-31T00:51:41;101001.22;;;22.94;55.33
61710;BME280;47633;51.494;5.386;2023-07-31T00:54:07;100995.88;;;22.94;54.95
61710;BME280;47633;51.494;5.386;2023-07-31T00:56:33;100997.69;;;22.94;55.20
61710;BME280;47633;51.494;5.386;2023-07-31T00:58:58;101002.19;;;22.93;55.15
61710;BME280;47633;51.494;5.386;2023-07-31T01:01:23;100993.22;;;22.94;55.00
61710;BME280;47633;51.494;5.386;2023-07-31T01:03:50;100995.03;;;22.94;55.22
61710;BME280;47633;51.494;5.386;2023-07-31T01:06:31;100989.03;;;22.92;55.21
61710;BME280;47633;51.494;5.386;2023-07-31T01:11:56;100982.91;;;22.91;55.40
61710;BME280;47633;51.494;5.386;2023-07-31T01:14:22;100993.38;;;22.93;54.93
61710;BME280;47633;51.494;5.386;2023-07-31T01:16:47;100991.84;;;22.90;55.12
61710;BME280;47633;51.494;5.386;2023-07-31T01:19:14;100986.53;;;22.90;54.91
61710;BME280;47633;51.494;5.386;2023-07-31T01:25:10;100981.22;;;22.90;55.10
61710;BME280;47633;51.494;5.386;2023-07-31T01:27:51;100983.88;;;22.90;54.93
61710;BME280;47633;51.494;5.386;2023-07-31T01:30:22;100980.41;;;22.90;55.21
61710;BME280;47633;51.494;5.386;2023-07-31T01:32:51;100982.22;;;22.89;54.86
61710;BME280;47633;51.494;5.386;2023-07-31T01:35:18;100985.72;;;22.90;55.04
61710;BME280;47633;51.494;5.386;2023-07-31T01:37:43;100983.22;;;22.88;55.49
61710;BME280;47633;51.494;5.386;2023-07-31T01:40:08;100984.03;;;22.89;54.98
61710;BME280;47633;51.494;5.386;2023-07-31T01:42:34;100981.38;;;22.89;55.00
61710;BME280;47633;51.494;5.386;2023-07-31T01:44:59;100981.38;;;22.89;55.00
61710;BME280;47633;51.494;5.386;2023-07-31T01:47:24;100979.72;;;22.88;54.93
61710;BME280;47633;51.494;5.386;2023-07-31T01:49:49;100978.88;;;22.87;54.95
61710;BME280;47633;51.494;5.386;2023-07-31T01:52:15;100979.72;;;22.88;54.91
61710;BME280;47633;51.494;5.386;2023-07-31T01:54:40;100972.72;;;22.87;55.21
61710;BME280;47633;51.494;5.386;2023-07-31T01:57:05;100970.91;;;22.87;54.76
61710;BME280;47633;51.494;5.386;2023-07-31T01:59:31;100969.09;;;22.88;54.91
61710;BME280;47633;51.494;5.386;2023-07-31T02:01:56;100967.41;;;22.87;54.73
61710;BME280;47633;51.494;5.386;2023-07-31T02:04:21;100965.75;;;22.86;54.77
61710;BME280;47633;51.494;5.386;2023-07-31T02:06:47;100954.28;;;22.85;54.67
61710;BME280;47633;51.494;5.386;2023-07-31T02:09:12;100949.78;;;22.86;54.84
61710;BME280;47633;51.494;5.386;2023-07-31T02:11:37;100949.94;;;22.84;54.61
61710;BME280;47633;51.494;5.386;2023-07-31T02:14:03;100952.44;;;22.86;55.00
61710;BME280;47633;51.494;5.386;2023-07-31T02:16:28;100943.81;;;22.83;54.64
61710;BME280;47633;51.494;5.386;2023-07-31T02:18:53;100945.63;;;22.83;54.66
61710;BME280;47633;51.494;5.386;2023-07-31T02:21:18;100939.31;;;22.84;54.64
61710;BME280;47633;51.494;5.386;2023-07-31T02:23:44;100942.97;;;22.83;54.85
61710;BME280;47633;51.494;5.386;2023-07-31T02:26:09;100936.16;;;22.80;54.47
61710;BME280;47633;51.494;5.386;2023-07-31T02:28:34;100934.16;;;22.82;54.57
61710;BME280;47633;51.494;5.386;2023-07-31T02:31:00;100930.81;;;22.80;54.79
61710;BME280;47633;51.494;5.386;2023-07-31T02:33:25;100918.38;;;22.81;54.37
61710;BME280;47633;51.494;5.386;2023-07-31T02:35:50;100930.81;;;22.80;54.71
61710;BME280;47633;51.494;5.386;2023-07-31T02:38:15;100916.88;;;22.78;54.42
61710;BME280;47633;51.494;5.386;2023-07-31T02:40:41;100914.22;;;22.78;54.60
61710;BME280;47633;51.494;5.386;2023-07-31T02:43:07;100905.94;;;22.81;54.44
61710;BME280;47633;51.494;5.386;2023-07-31T02:45:32;100918.53;;;22.79;54.26
61710;BME280;47633;51.494;5.386;2023-07-31T02:47:57;100912.69;;;22.76;54.67
61710;BME280;47633;51.494;5.386;2023-07-31T02:50:23;100919.53;;;22.78;54.63
61710;BME280;47633;51.494;5.386;2023-07-31T02:52:48;100921.34;;;22.78;54.69
61710;BME280;47633;51.494;5.386;2023-07-31T02:55:13;100919.53;;;22.78;54.39
61710;BME280;47633;51.494;5.386;2023-07-31T02:57:39;100917.84;;;22.77;54.81
61710;BME280;47633;51.494;5.386;2023-07-31T03:00:05;100913.34;;;22.78;54.65
61710;BME280;47633;51.494;5.386;2023-07-31T03:02:31;100916.00;;;22.78;54.27
61710;BME280;47633;51.494;5.386;2023-07-31T03:04:57;100907.22;;;22.77;54.23
61710;BME280;47633;51.494;5.386;2023-07-31T03:07:22;100913.50;;;22.76;54.22
61710;BME280;47633;51.494;5.386;2023-07-31T03:09:47;100906.41;;;22.77;54.44
61710;BME280;47633;51.494;5.386;2023-07-31T03:12:13;100902.06;;;22.76;54.40
61710;BME280;47633;51.494;5.386;2023-07-31T03:14:38;100897.56;;;22.76;54.13
61710;BME280;47633;51.494;5.386;2023-07-31T03:17:03;100909.22;;;22.75;54.16
61710;BME280;47633;51.494;5.386;2023-07-31T03:19:31;100909.22;;;22.75;54.20
61710;BME280;47633;51.494;5.386;2023-07-31T03:21:57;100896.06;;;22.74;54.46
61710;BME280;47633;51.494;5.386;2023-07-31T03:24:22;100908.53;;;22.73;54.18
61710;BME280;47633;51.494;5.386;2023-07-31T03:26:48;100904.72;;;22.76;54.25
61710;BME280;47633;51.494;5.386;2023-07-31T03:29:13;100899.41;;;22.76;54.21
61710;BME280;47633;51.494;5.386;2023-07-31T03:31:38;100892.44;;;22.75;54.68
61710;BME280;47633;51.494;5.386;2023-07-31T03:34:03;100885.44;;;22.74;54.28
61710;BME280;47633;51.494;5.386;2023-07-31T03:36:29;100882.78;;;22.74;54.28
61710;BME280;47633;51.494;5.386;2023-07-31T03:38:54;100886.28;;;22.74;53.94
61710;BME280;47633;51.494;5.386;2023-07-31T03:41:19;100877.47;;;22.74;54.17
61710;BME280;47633;51.494;5.386;2023-07-31T03:43:48;100876.66;;;22.73;54.28
61710;BME280;47633;51.494;5.386;2023-07-31T03:46:16;100880.97;;;22.74;54.26
61710;BME280;47633;51.494;5.386;2023-07-31T03:48:41;100874.81;;;22.74;54.16
61710;BME280;47633;51.494;5.386;2023-07-31T03:51:07;100872.16;;;22.74;54.51
61710;BME280;47633;51.494;5.386;2023-07-31T03:53:32;100873.16;;;22.73;54.42
61710;BME280;47633;51.494;5.386;2023-07-31T03:55:57;100869.66;;;22.72;54.25
61710;BME280;47633;51.494;5.386;2023-07-31T03:58:22;100860.88;;;22.72;54.27
61710;BME280;47633;51.494;5.386;2023-07-31T04:00:48;100860.88;;;22.72;54.47
61710;BME280;47633;51.494;5.386;2023-07-31T04:03:13;100852.06;;;22.71;54.51
61710;BME280;47633;51.494;5.386;2023-07-31T04:05:38;100852.06;;;22.71;54.51
61710;BME280;47633;51.494;5.386;2023-07-31T04:08:05;100847.75;;;22.70;54.41
61710;BME280;47633;51.494;5.386;2023-07-31T04:10:30;100847.03;;;22.68;54.80
61710;BME280;47633;51.494;5.386;2023-07-31T04:12:59;100846.06;;;22.69;54.60
61710;BME280;47633;51.494;5.386;2023-07-31T04:15:25;100840.75;;;22.69;54.28
61710;BME280;47633;51.494;5.386;2023-07-31T04:17:50;100844.22;;;22.70;54.24
61710;BME280;47633;51.494;5.386;2023-07-31T04:20:15;100844.22;;;22.70;54.50
61710;BME280;47633;51.494;5.386;2023-07-31T04:22:41;100834.47;;;22.70;54.72
61710;BME280;47633;51.494;5.386;2023-07-31T04:25:06;100827.47;;;22.69;54.74
61710;BME280;47633;51.494;5.386;2023-07-31T04:27:32;100833.59;;;22.70;54.86
61710;BME280;47633;51.494;5.386;2023-07-31T04:29:57;100833.59;;;22.70;54.46
61710;BME280;47633;51.494;5.386;2023-07-31T04:32:22;100822.97;;;22.70;54.55
61710;BME280;47633;51.494;5.386;2023-07-31T04:34:48;100815.00;;;22.70;54.73
61710;BME280;47633;51.494;5.386;2023-07-31T04:37:13;100822.31;;;22.68;54.86
61710;BME280;47633;51.494;5.386;2023-07-31T04:39:39;100823.84;;;22.70;54.47
61710;BME280;47633;51.494;5.386;2023-07-31T04:42:04;100816.03;;;22.69;54.52
61710;BME280;47633;51.494;5.386;2023-07-31T04:44:30;100809.03;;;22.68;54.74
61710;BME280;47633;51.494;5.386;2023-07-31T04:46:55;100802.75;;;22.69;54.75
61710;BME280;47633;51.494;5.386;2023-07-31T04:49:20;100810.72;;;22.69;54.75
61710;BME280;47633;51.494;5.386;2023-07-31T04:51:46;100803.72;;;22.68;54.80
61710;BME280;47633;51.494;5.386;2023-07-31T04:54:11;100803.56;;;22.69;54.29
61710;BME280;47633;51.494;5.386;2023-07-31T04:56:40;100805.56;;;22.67;54.76
61710;BME280;47633;51.494;5.386;2023-07-31T04:59:06;100799.38;;;22.67;54.82
61710;BME280;47633;51.494;5.386;2023-07-31T05:01:31;100804.53;;;22.68;54.97
61710;BME280;47633;51.494;5.386;2023-07-31T05:03:56;100794.06;;;22.67;54.83
61710;BME280;47633;51.494;5.386;2023-07-31T05:06:22;100803.72;;;22.68;54.68
61710;BME280;47633;51.494;5.386;2023-07-31T05:08:47;100788.75;;;22.67;54.49
61710;BME280;47633;51.494;5.386;2023-07-31T05:11:12;100794.94;;;22.67;55.00
61710;BME280;47633;51.494;5.386;2023-07-31T05:13:38;100785.13;;;22.68;54.99
61710;BME280;47633;51.494;5.386;2023-07-31T05:16:03;100788.75;;;22.67;54.60
61710;BME280;47633;51.494;5.386;2023-07-31T05:18:29;100792.28;;;22.67;54.88
61710;BME280;47633;51.494;5.386;2023-07-31T05:20:54;100792.44;;;22.66;54.96
61710;BME280;47633;51.494;5.386;2023-07-31T05:23:19;100795.91;;;22.66;55.14
61710;BME280;47633;51.494;5.386;2023-07-31T05:25:44;100792.44;;;22.66;55.14
61710;BME280;47633;51.494;5.386;2023-07-31T05:28:11;100789.91;;;22.64;55.13
61710;BME280;47633;51.494;5.386;2023-07-31T05:30:36;100794.22;;;22.65;54.78
61710;BME280;47633;51.494;5.386;2023-07-31T05:33:01;100788.75;;;22.67;55.08
61710;BME280;47633;51.494;5.386;2023-07-31T05:35:27;100775.63;;;22.65;55.19
61710;BME280;47633;51.494;5.386;2023-07-31T05:37:52;100797.75;;;22.66;55.10
61710;BME280;47633;51.494;5.386;2023-07-31T05:40:17;100788.91;;;22.65;55.45
61710;BME280;47633;51.494;5.386;2023-07-31T05:42:43;100783.44;;;22.67;55.16
61710;BME280;47633;51.494;5.386;2023-07-31T05:45:08;100770.31;;;22.65;54.98
61710;BME280;47633;51.494;5.386;2023-07-31T05:47:34;100768.53;;;22.66;55.09
61710;BME280;47633;51.494;5.386;2023-07-31T05:49:59;100758.88;;;22.64;54.97
61710;BME280;47633;51.494;5.386;2023-07-31T05:52:24;100764.19;;;22.64;55.48
61710;BME280;47633;51.494;5.386;2023-07-31T05:54:50;100764.19;;;22.64;55.52
61710;BME280;47633;51.494;5.386;2023-07-31T05:57:15;100768.53;;;22.66;55.10
61710;BME280;47633;51.494;5.386;2023-07-31T05:59:42;100759.84;;;22.63;55.17
61710;BME280;47633;51.494;5.386;2023-07-31T06:02:08;100758.06;;;22.64;55.52
61710;BME280;47633;51.494;5.386;2023-07-31T06:04:33;100754.69;;;22.62;55.65
61710;BME280;47633;51.494;5.386;2023-07-31T06:06:58;100754.53;;;22.63;55.23
61710;BME280;47633;51.494;5.386;2023-07-31T06:09:24;100762.34;;;22.65;55.48
61710;BME280;47633;51.494;5.386;2023-07-31T06:11:51;100759.03;;;22.63;55.64
61710;BME280;47633;51.494;5.386;2023-07-31T06:14:16;100751.06;;;22.63;55.53
61710;BME280;47633;51.494;5.386;2023-07-31T06:16:41;100751.06;;;22.63;55.25
61710;BME280;47633;51.494;5.386;2023-07-31T06:19:07;100751.88;;;22.63;55.41
61710;BME280;47633;51.494;5.386;2023-07-31T06:21:32;100739.63;;;22.62;55.27
61710;BME280;47633;51.494;5.386;2023-07-31T06:23:58;100738.75;;;22.62;55.41
61710;BME280;47633;51.494;5.386;2023-07-31T06:26:23;100740.59;;;22.61;55.43
61710;BME280;47633;51.494;5.386;2023-07-31T06:28:48;100744.06;;;22.62;55.58
61710;BME280;47633;51.494;5.386;2023-07-31T06:31:14;100745.75;;;22.63;55.33
61710;BME280;47633;51.494;5.386;2023-07-31T06:33:39;100738.75;;;22.62;55.74
61710;BME280;47633;51.494;5.386;2023-07-31T06:36:04;100737.94;;;22.61;55.30
61710;BME280;47633;51.494;5.386;2023-07-31T06:38:29;100737.13;;;22.61;55.47
61710;BME280;47633;51.494;5.386;2023-07-31T06:40:55;100733.78;;;22.59;55.63
61710;BME280;47633;51.494;5.386;2023-07-31T06:43:21;100737.28;;;22.59;55.40
61710;BME280;47633;51.494;5.386;2023-07-31T06:45:46;100726.50;;;22.61;55.78
61710;BME280;47633;51.494;5.386;2023-07-31T06:48:14;100729.97;;;22.61;55.80
61710;BME280;47633;51.494;5.386;2023-07-31T06:50:39;100724.34;;;22.64;55.72
61710;BME280;47633;51.494;5.386;2023-07-31T06:53:04;100715.56;;;22.64;55.82
61710;BME280;47633;51.494;5.386;2023-07-31T06:55:30;100723.38;;;22.66;56.32
61710;BME280;47633;51.494;5.386;2023-07-31T06:57:55;100713.72;;;22.64;56.30
61710;BME280;47633;51.494;5.386;2023-07-31T07:00:22;100719.03;;;22.64;55.99
61710;BME280;47633;51.494;5.386;2023-07-31T07:02:48;100719.84;;;22.65;56.30
61710;BME280;47633;51.494;5.386;2023-07-31T07:05:14;100720.72;;;22.66;56.03
61710;BME280;47633;51.494;5.386;2023-07-31T07:07:41;100707.44;;;22.66;56.34
61710;BME280;47633;51.494;5.386;2023-07-31T07:10:07;100705.75;;;22.64;56.74
61710;BME280;47633;51.494;5.386;2023-07-31T07:12:33;100700.91;;;22.60;56.86
61710;BME280;47633;51.494;5.386;2023-07-31T07:14:59;100712.00;;;22.55;57.17
61710;BME280;47633;51.494;5.386;2023-07-31T07:17:26;100700.03;;;22.51;57.44
61710;BME280;47633;51.494;5.386;2023-07-31T07:19:51;100711.13;;;22.46;57.73
61710;BME280;47633;51.494;5.386;2023-07-31T07:22:17;100706.13;;;22.43;57.92
61710;BME280;47633;51.494;5.386;2023-07-31T07:24:43;100690.19;;;22.43;57.85
61710;BME280;47633;51.494;5.386;2023-07-31T07:27:08;100693.69;;;22.44;58.26
61710;BME280;47633;51.494;5.386;2023-07-31T07:29:34;100693.69;;;22.44;58.11
61710;BME280;47633;51.494;5.386;2023-07-31T07:32:00;100697.16;;;22.44;58.32
61710;BME280;47633;51.494;5.386;2023-07-31T07:34:26;100704.16;;;22.45;58.37
61710;BME280;47633;51.494;5.386;2023-07-31T07:36:52;100704.16;;;22.45;58.10
61710;BME280;47633;51.494;5.386;2023-07-31T07:39:17;100704.00;;;22.47;57.76
61710;BME280;47633;51.494;5.386;2023-07-31T07:41:42;100706.50;;;22.49;58.24
61710;BME280;47633;51.494;5.386;2023-07-31T07:44:08;100704.81;;;22.48;58.19
61710;BME280;47633;51.494;5.386;2023-07-31T07:46:33;100699.19;;;22.51;57.92
61710;BME280;47633;51.494;5.386;2023-07-31T07:48:59;100707.00;;;22.52;57.60
61710;BME280;47633;51.494;5.386;2023-07-31T07:51:24;100703.53;;;22.52;57.94
61710;BME280;47633;51.494;5.386;2023-07-31T07:53:49;100701.69;;;22.52;58.01
61710;BME280;47633;51.494;5.386;2023-07-31T07:56:14;100699.19;;;22.51;58.37
61710;BME280;47633;51.494;5.386;2023-07-31T07:58:40;100705.34;;;22.51;59.25
61710;BME280;47633;51.494;5.386;2023-07-31T08:01:05;100703.69;;;22.50;58.74
61710;BME280;47633;51.494;5.386;2023-07-31T08:03:30;100701.38;;;22.55;58.34
61710;BME280;47633;51.494;5.386;2023-07-31T08:06:00;100692.81;;;22.70;57.49
61710;BME280;47633;51.494;5.386;2023-07-31T08:08:26;100699.38;;;22.83;57.21
61710;BME280;47633;51.494;5.386;2023-07-31T08:10:51;100703.38;;;22.88;56.59
61710;BME280;47633;51.494;5.386;2023-07-31T08:13:17;100683.78;;;22.89;56.57
61710;BME280;47633;51.494;5.386;2023-07-31T08:15:42;100693.09;;;22.93;56.69
61710;BME280;47633;51.494;5.386;2023-07-31T08:18:08;100686.56;;;22.79;57.53
61710;BME280;47633;51.494;5.386;2023-07-31T08:20:33;100689.34;;;22.69;57.62
61710;BME280;47633;51.494;5.386;2023-07-31T08:22:59;100684.81;;;22.61;58.22
61710;BME280;47633;51.494;5.386;2023-07-31T08:25:24;100692.44;;;22.56;57.87
61710;BME280;47633;51.494;5.386;2023-07-31T08:27:50;100689.09;;;22.54;58.18
61710;BME280;47633;51.494;5.386;2023-07-31T08:30:18;100695.56;;;22.52;59.36
61710;BME280;47633;51.494;5.386;2023-07-31T08:32:44;100682.28;;;22.52;58.69
61710;BME280;47633;51.494;5.386;2023-07-31T08:35:09;100690.41;;;22.50;58.42
61710;BME280;47633;51.494;5.386;2023-07-31T08:37:35;100686.94;;;22.50;58.33
61710;BME280;47633;51.494;5.386;2023-07-31T08:40:00;100690.41;;;22.50;58.10
61710;BME280;47633;51.494;5.386;2023-07-31T08:42:26;100685.41;;;22.47;58.33
61710;BME280;47633;51.494;5.386;2023-07-31T08:44:53;100685.56;;;22.45;58.69
61710;BME280;47633;51.494;5.386;2023-07-31T08:47:21;100694.50;;;22.44;58.74
61710;BME280;47633;51.494;5.386;2023-07-31T08:49:47;100690.88;;;22.45;58.64
61710;BME280;47633;51.494;5.386;2023-07-31T08:52:13;100689.59;;;22.50;58.43
61710;BME280;47633;51.494;5.386;2023-07-31T08:54:38;100675.28;;;22.51;58.22
61710;BME280;47633;51.494;5.386;2023-07-31T08:57:05;100681.63;;;22.50;58.24
61710;BME280;47633;51.494;5.386;2023-07-31T08:59:34;100674.47;;;22.50;57.93
61710;BME280;47633;51.494;5.386;2023-07-31T09:02:05;100673.81;;;22.48;58.47
61710;BME280;47633;51.494;5.386;2023-07-31T09:04:32;100681.78;;;22.48;58.61
61710;BME280;47633;51.494;5.386;2023-07-31T09:07:00;100683.56;;;22.48;58.61
61710;BME280;47633;51.494;5.386;2023-07-31T09:09:28;100672.94;;;22.48;58.62
61710;BME280;47633;51.494;5.386;2023-07-31T09:11:54;100686.22;;;22.48;58.52
61710;BME280;47633;51.494;5.386;2023-07-31T09:14:20;100683.72;;;22.46;58.25
61710;BME280;47633;51.494;5.386;2023-07-31T09:16:56;100678.41;;;22.46;58.96
61710;BME280;47633;51.494;5.386;2023-07-31T09:19:29;100679.44;;;22.45;58.94
61710;BME280;47633;51.494;5.386;2023-07-31T09:21:55;100664.97;;;22.48;58.44
61710;BME280;47633;51.494;5.386;2023-07-31T09:24:32;100670.28;;;22.48;58.50
61710;BME280;47633;51.494;5.386;2023-07-31T09:26:59;100667.16;;;22.52;58.66
61710;BME280;47633;51.494;5.386;2023-07-31T09:29:25;100663.53;;;22.53;58.87
61710;BME280;47633;51.494;5.386;2023-07-31T09:31:52;100667.31;;;22.51;58.64
61710;BME280;47633;51.494;5.386;2023-07-31T09:34:17;100666.34;;;22.52;58.68
61710;BME280;47633;51.494;5.386;2023-07-31T09:36:46;100660.06;;;22.53;58.85
61710;BME280;47633;51.494;5.386;2023-07-31T09:39:13;100654.91;;;22.51;58.74
61710;BME280;47633;51.494;5.386;2023-07-31T09:41:41;100669.00;;;22.52;58.82
61710;BME280;47633;51.494;5.386;2023-07-31T09:44:07;100661.84;;;22.52;58.91
61710;BME280;47633;51.494;5.386;2023-07-31T09:46:35;100658.38;;;22.52;58.68
61710;BME280;47633;51.494;5.386;2023-07-31T09:49:06;100654.91;;;22.51;58.81
61710;BME280;47633;51.494;5.386;2023-07-31T09:51:31;100654.91;;;22.51;58.99
61710;BME280;47633;51.494;5.386;2023-07-31T09:53:57;100654.91;;;22.51;58.78
61710;BME280;47633;51.494;5.386;2023-07-31T09:56:23;100654.75;;;22.53;59.11
61710;BME280;47633;51.494;5.386;2023-07-31T09:58:49;100652.25;;;22.51;58.79
61710;BME280;47633;51.494;5.386;2023-07-31T10:01:15;100658.88;;;22.55;58.96
61710;BME280;47633;51.494;5.386;2023-07-31T10:03:42;100652.59;;;22.56;59.17
61710;BME280;47633;51.494;5.386;2023-07-31T10:06:11;100647.28;;;22.56;58.58
61710;BME280;47633;51.494;5.386;2023-07-31T10:08:38;100649.78;;;22.58;58.96
61710;BME280;47633;51.494;5.386;2023-07-31T10:11:05;100648.97;;;22.57;59.18
61710;BME280;47633;51.494;5.386;2023-07-31T10:13:33;100640.84;;;22.59;58.67
61710;BME280;47633;51.494;5.386;2023-07-31T10:15:59;100641.50;;;22.61;58.82
61710;BME280;47633;51.494;5.386;2023-07-31T10:18:26;100639.81;;;22.60;59.43
61710;BME280;47633;51.494;5.386;2023-07-31T10:20:52;100638.84;;;22.61;59.43
61710;BME280;47633;51.494;5.386;2023-07-31T10:23:18;100642.31;;;22.61;59.44
61710;BME280;47633;51.494;5.386;2023-07-31T10:25:43;100644.16;;;22.61;59.16
61710;BME280;47633;51.494;5.386;2023-07-31T10:28:10;100646.81;;;22.61;58.89
61710;BME280;47633;51.494;5.386;2023-07-31T10:30:37;100644.81;;;22.63;59.24
61710;BME280;47633;51.494;5.386;2023-07-31T10:33:05;100644.00;;;22.62;59.15
61710;BME280;47633;51.494;5.386;2023-07-31T10:35:31;100637.53;;;22.65;59.12
61710;BME280;47633;51.494;5.386;2023-07-31T10:38:10;100642.81;;;22.65;59.24
61710;BME280;47633;51.494;5.386;2023-07-31T10:40:37;100647.00;;;22.68;59.15
61710;BME280;47633;51.494;5.386;2023-07-31T10:43:02;100645.31;;;22.67;59.52
61710;BME280;47633;51.494;5.386;2023-07-31T10:45:38;100649.66;;;22.68;59.14
61710;BME280;47633;51.494;5.386;2023-07-31T10:48:24;100650.31;;;22.70;58.93
61710;BME280;47633;51.494;5.386;2023-07-31T10:50:51;100651.19;;;22.70;59.00
61710;BME280;47633;51.494;5.386;2023-07-31T10:53:24;100647.66;;;22.70;59.21
61710;BME280;47633;51.494;5.386;2023-07-31T10:56:00;100645.69;;;22.72;59.12
61710;BME280;47633;51.494;5.386;2023-07-31T10:58:26;100644.03;;;22.71;59.40
61710;BME280;47633;51.494;5.386;2023-07-31T11:00:56;100637.91;;;22.70;59.48
61710;BME280;47633;51.494;5.386;2023-07-31T11:03:25;100637.03;;;22.70;59.08
61710;BME280;47633;51.494;5.386;2023-07-31T11:06:01;100634.06;;;22.73;59.33
61710;BME280;47633;51.494;5.386;2023-07-31T11:08:33;100636.88;;;22.71;59.29
61710;BME280;47633;51.494;5.386;2023-07-31T11:13:40;100628.75;;;22.73;59.17
61710;BME280;47633;51.494;5.386;2023-07-31T11:16:06;100631.56;;;22.71;59.48
61710;BME280;47633;51.494;5.386;2023-07-31T11:18:31;100635.09;;;22.72;59.46
61710;BME280;47633;51.494;5.386;2023-07-31T11:20:57;100633.25;;;22.72;58.99
61710;BME280;47633;51.494;5.386;2023-07-31T11:23:23;100630.59;;;22.72;59.33
61710;BME280;47633;51.494;5.386;2023-07-31T11:25:49;100634.22;;;22.71;58.99
61710;BME280;47633;51.494;5.386;2023-07-31T11:28:16;100628.91;;;22.71;59.44
61710;BME280;47633;51.494;5.386;2023-07-31T11:30:43;100620.28;;;22.69;58.77
61710;BME280;47633;51.494;5.386;2023-07-31T11:33:10;100612.97;;;22.71;59.25
61710;BME280;47633;51.494;5.386;2023-07-31T11:35:45;100614.81;;;22.71;59.00
61710;BME280;47633;51.494;5.386;2023-07-31T11:38:28;100622.78;;;22.71;59.06
61710;BME280;47633;51.494;5.386;2023-07-31T11:40:55;100614.81;;;22.71;59.44
61710;BME280;47633;51.494;5.386;2023-07-31T11:43:22;100616.66;;;22.70;59.25
61710;BME280;47633;51.494;5.386;2023-07-31T11:45:49;100615.63;;;22.71;58.94
61710;BME280;47633;51.494;5.386;2023-07-31T11:48:25;100617.31;;;22.72;59.26
61710;BME280;47633;51.494;5.386;2023-07-31T11:51:03;100611.84;;;22.74;59.16
61710;BME280;47633;51.494;5.386;2023-07-31T11:55:59;100604.22;;;22.79;59.32
61710;BME280;47633;51.494;5.386;2023-07-31T11:58:26;100610.72;;;22.85;59.19
61710;BME280;47633;51.494;5.386;2023-07-31T12:00:52;100609.03;;;22.83;59.36
61710;BME280;47633;51.494;5.386;2023-07-31T12:03:18;100607.38;;;22.82;59.05
61710;BME280;47633;51.494;5.386;2023-07-31T12:05:43;100607.53;;;22.81;59.55
61710;BME280;47633;51.494;5.386;2023-07-31T12:08:11;100611.19;;;22.80;59.54
61710;BME280;47633;51.494;5.386;2023-07-31T12:10:40;100610.19;;;22.81;59.95
61710;BME280;47633;51.494;5.386;2023-07-31T12:13:09;100602.22;;;22.81;59.34
61710;BME280;47633;51.494;5.386;2023-07-31T12:15:44;100601.38;;;22.80;59.40
61710;BME280;47633;51.494;5.386;2023-07-31T12:18:19;100603.38;;;22.78;60.02
61710;BME280;47633;51.494;5.386;2023-07-31T12:20:47;100599.06;;;22.77;59.75
61710;BME280;47633;51.494;5.386;2023-07-31T12:23:17;100604.72;;;22.82;59.92
61710;BME280;47633;51.494;5.386;2023-07-31T12:25:43;100589.94;;;22.80;59.93
61710;BME280;47633;51.494;5.386;2023-07-31T12:28:09;100587.13;;;22.81;59.95
61710;BME280;47633;51.494;5.386;2023-07-31T12:30:39;100582.63;;;22.82;59.72
61710;BME280;47633;51.494;5.386;2023-07-31T12:33:06;100584.31;;;22.83;59.99
61710;BME280;47633;51.494;5.386;2023-07-31T12:35:37;100601.38;;;22.80;59.40
61710;BME280;47633;51.494;5.386;2023-07-31T12:38:02;100592.59;;;22.80;59.91
61710;BME280;47633;51.494;5.386;2023-07-31T12:40:28;100584.63;;;22.80;59.86
61710;BME280;47633;51.494;5.386;2023-07-31T12:42:53;100580.97;;;22.81;60.01
61710;BME280;47633;51.494;5.386;2023-07-31T12:45:18;100580.78;;;22.82;60.21
61710;BME280;47633;51.494;5.386;2023-07-31T12:47:44;100571.19;;;22.81;59.60
61710;BME280;47633;51.494;5.386;2023-07-31T12:50:09;100561.53;;;22.80;59.86
61710;BME280;47633;51.494;5.386;2023-07-31T12:52:35;100557.06;;;22.81;59.58
61710;BME280;47633;51.494;5.386;2023-07-31T12:55:00;100553.41;;;22.82;59.87
61710;BME280;47633;51.494;5.386;2023-07-31T12:57:25;100554.22;;;22.82;59.80